createdAt,value
2018-08-18T00:00:46.487Z,0
2018-08-18T00:01:46.482Z,0
2018-08-18T00:02:46.734Z,0
2018-08-18T00:03:46.221Z,0
2018-08-18T00:04:46.729Z,0
2018-08-18T00:05:46.466Z,0
2018-08-18T00:06:46.730Z,0
2018-08-18T00:07:46.517Z,0
2018-08-18T00:08:46.722Z,0
2018-08-18T00:09:46.457Z,0
2018-08-18T00:10:46.206Z,0
2018-08-18T00:11:46.709Z,0
2018-08-18T00:12:46.701Z,0
2018-08-18T00:13:46.439Z,0
2018-08-18T00:14:46.430Z,0
2018-08-18T00:15:46.689Z,0
2018-08-18T00:16:46.422Z,0
2018-08-18T00:17:46.424Z,0
2018-08-18T00:18:46.414Z,0
2018-08-18T00:19:46.674Z,0
2018-08-18T00:20:46.412Z,0
2018-08-18T00:21:46.404Z,0
2018-08-18T00:22:46.400Z,0
2018-08-18T00:23:46.656Z,0
2018-08-18T00:24:46.654Z,0
2018-08-18T00:25:46.654Z,0
2018-08-18T00:26:46.646Z,0
2018-08-18T00:27:46.381Z,0
2018-08-18T00:28:46.652Z,0
2018-08-18T00:29:46.634Z,0
2018-08-18T00:30:46.629Z,0
2018-08-18T00:31:46.365Z,0
2018-08-18T00:32:46.367Z,0
2018-08-18T00:33:46.360Z,0
2018-08-18T00:34:46.359Z,0
2018-08-18T00:35:45.838Z,0
2018-08-18T00:36:46.349Z,0
2018-08-18T00:37:46.615Z,0
2018-08-18T00:38:46.605Z,0
2018-08-18T00:39:46.591Z,0
2018-08-18T00:40:46.585Z,0
2018-08-18T00:41:46.585Z,0
2018-08-18T00:42:46.585Z,0
2018-08-18T00:43:46.322Z,0
2018-08-18T00:44:46.061Z,0
2018-08-18T00:45:46.057Z,0
2018-08-18T00:46:46.315Z,0
2018-08-18T00:47:46.564Z,0
2018-08-18T00:48:46.553Z,0
2018-08-18T00:49:46.294Z,0
2018-08-18T00:50:46.299Z,0
2018-08-18T00:51:46.543Z,0
2018-08-18T00:52:46.559Z,0
2018-08-18T00:53:46.280Z,0
2018-08-18T00:54:46.530Z,0
2018-08-18T00:55:46.528Z,0
2018-08-18T00:56:46.534Z,0
2018-08-18T00:57:46.292Z,0
2018-08-18T00:58:45.748Z,0
2018-08-18T00:59:46.266Z,0
2018-08-18T01:00:46.512Z,0
2018-08-18T01:01:46.254Z,0
2018-08-18T01:02:46.502Z,0
2018-08-18T01:03:46.250Z,0
2018-08-18T01:04:46.497Z,0
2018-08-18T01:05:45.979Z,0
2018-08-18T01:06:45.978Z,0
2018-08-18T01:07:46.480Z,0
2018-08-18T01:08:45.963Z,0
2018-08-18T01:09:46.471Z,0
2018-08-18T01:10:46.494Z,0
2018-08-18T01:11:47.453Z,0
2018-08-18T01:12:46.550Z,0
2018-08-18T01:13:46.542Z,0
2018-08-18T01:14:46.830Z,0
2018-08-18T01:15:46.362Z,0
2018-08-18T01:16:46.452Z,0
2018-08-18T01:17:46.458Z,0
2018-08-18T01:18:46.190Z,0
2018-08-18T01:19:46.441Z,0
2018-08-18T01:20:46.430Z,0
2018-08-18T01:21:46.175Z,0
2018-08-18T01:22:46.434Z,0
2018-08-18T01:23:46.169Z,0
2018-08-18T01:24:46.161Z,0
2018-08-18T01:25:46.412Z,0
2018-08-18T01:26:46.152Z,0
2018-08-18T01:27:46.408Z,0
2018-08-18T01:28:46.409Z,0
2018-08-18T01:29:46.149Z,0
2018-08-18T01:30:46.190Z,0
2018-08-18T01:31:46.143Z,0
2018-08-18T01:32:46.138Z,0
2018-08-18T01:33:46.390Z,0
2018-08-18T01:34:46.146Z,0
2018-08-18T01:35:46.384Z,0
2018-08-18T01:36:46.116Z,0
2018-08-18T01:37:46.372Z,0
2018-08-18T01:38:46.118Z,0
2018-08-18T01:39:46.367Z,0
2018-08-18T01:40:46.104Z,0
2018-08-18T01:41:46.354Z,0
2018-08-18T01:42:46.092Z,0
2018-08-18T01:43:46.310Z,0
2018-08-18T01:44:46.091Z,0
2018-08-18T01:45:46.351Z,0
2018-08-18T01:46:46.342Z,0
2018-08-18T01:47:46.075Z,0
2018-08-18T01:48:46.335Z,0
2018-08-18T01:49:46.320Z,0
2018-08-18T01:50:46.076Z,0
2018-08-18T01:51:45.549Z,0
2018-08-18T01:52:45.805Z,0
2018-08-18T01:53:45.801Z,0
2018-08-18T01:54:46.048Z,0
2018-08-18T01:55:46.309Z,0
2018-08-18T01:56:45.529Z,0
2018-08-18T01:57:45.786Z,0
2018-08-18T01:58:46.040Z,0
2018-08-18T01:59:46.042Z,0
2018-08-18T02:00:46.285Z,0
2018-08-18T02:01:46.027Z,0
2018-08-18T02:02:46.275Z,0
2018-08-18T02:03:46.279Z,0
2018-08-18T02:04:46.271Z,0
2018-08-18T02:05:46.012Z,0
2018-08-18T02:06:46.014Z,0
2018-08-18T02:07:45.746Z,0
2018-08-18T02:08:46.001Z,0
2018-08-18T02:09:46.003Z,0
2018-08-18T02:10:45.997Z,0
2018-08-18T02:11:45.737Z,0
2018-08-18T02:12:46.246Z,0
2018-08-18T02:13:45.986Z,0
2018-08-18T02:14:45.982Z,0
2018-08-18T02:15:46.233Z,0
2018-08-18T02:16:46.227Z,0
2018-08-18T02:17:46.236Z,0
2018-08-18T02:18:46.228Z,0
2018-08-18T02:19:45.967Z,0
2018-08-18T02:20:46.210Z,0
2018-08-18T02:21:46.212Z,0
2018-08-18T02:22:46.213Z,0
2018-08-18T02:23:45.993Z,0
2018-08-18T02:24:46.207Z,0
2018-08-18T02:25:45.938Z,0
2018-08-18T02:26:46.188Z,0
2018-08-18T02:27:46.186Z,0
2018-08-18T02:28:45.929Z,0
2018-08-18T02:29:45.925Z,0
2018-08-18T02:30:46.191Z,0
2018-08-18T02:31:46.173Z,0
2018-08-18T02:32:45.952Z,0
2018-08-18T02:33:45.909Z,0
2018-08-18T02:34:46.166Z,0
2018-08-18T02:35:46.157Z,0
2018-08-18T02:36:46.160Z,0
2018-08-18T02:37:45.891Z,0
2018-08-18T02:38:45.908Z,0
2018-08-18T02:39:45.907Z,0
2018-08-18T02:40:46.141Z,0
2018-08-18T02:41:45.878Z,0
2018-08-18T02:42:45.877Z,0
2018-08-18T02:43:45.871Z,0
2018-08-18T02:44:45.871Z,0
2018-08-18T02:45:45.863Z,0
2018-08-18T02:46:46.133Z,0
2018-08-18T02:47:45.860Z,0
2018-08-18T02:48:45.859Z,0
2018-08-18T02:49:45.849Z,0
2018-08-18T02:50:45.851Z,0
2018-08-18T02:51:45.584Z,0
2018-08-18T02:52:46.104Z,0
2018-08-18T02:53:45.583Z,0
2018-08-18T02:54:46.089Z,0
2018-08-18T02:55:45.569Z,0
2018-08-18T02:56:45.566Z,0
2018-08-18T02:57:45.824Z,0
2018-08-18T02:58:46.070Z,0
2018-08-18T02:59:45.809Z,0
2018-08-18T03:00:45.806Z,0
2018-08-18T03:01:45.804Z,0
2018-08-18T03:02:46.062Z,0
2018-08-18T03:03:46.052Z,0
2018-08-18T03:04:45.791Z,0
2018-08-18T03:05:45.798Z,0
2018-08-18T03:06:45.530Z,0
2018-08-18T03:07:46.186Z,0
2018-08-18T03:08:45.778Z,0
2018-08-18T03:09:46.026Z,0
2018-08-18T03:10:45.516Z,0
2018-08-18T03:11:45.254Z,0
2018-08-18T03:12:45.242Z,0
2018-08-18T03:13:46.019Z,0
2018-08-18T03:14:46.015Z,0
2018-08-18T03:15:45.235Z,0
2018-08-18T03:16:45.757Z,0
2018-08-18T03:17:45.486Z,0
2018-08-18T03:18:45.757Z,0
2018-08-18T03:19:45.482Z,0
2018-08-18T03:20:45.986Z,0
2018-08-18T03:21:45.737Z,0
2018-08-18T03:22:45.728Z,0
2018-08-18T03:23:45.974Z,0
2018-08-18T03:24:45.735Z,0
2018-08-18T03:25:45.478Z,0
2018-08-18T03:26:45.713Z,0
2018-08-18T03:27:45.705Z,0
2018-08-18T03:28:45.963Z,0
2018-08-18T03:29:46.000Z,0
2018-08-18T03:30:45.994Z,0
2018-08-18T03:31:45.953Z,0
2018-08-18T03:32:45.698Z,0
2018-08-18T03:33:45.944Z,0
2018-08-18T03:34:45.680Z,0
2018-08-18T03:35:45.412Z,0
2018-08-18T03:36:45.411Z,0
2018-08-18T03:37:45.406Z,0
2018-08-18T03:38:45.672Z,0
2018-08-18T03:39:45.403Z,0
2018-08-18T03:40:45.940Z,0
2018-08-18T03:41:45.715Z,0
2018-08-18T03:42:45.645Z,0
2018-08-18T03:43:45.899Z,0
2018-08-18T03:44:45.384Z,0
2018-08-18T03:45:45.636Z,0
2018-08-18T03:46:45.640Z,0
2018-08-18T03:47:45.891Z,0
2018-08-18T03:48:45.632Z,0
2018-08-18T03:49:45.883Z,0
2018-08-18T03:50:45.104Z,0
2018-08-18T03:51:45.615Z,0
2018-08-18T03:52:45.879Z,0
2018-08-18T03:53:45.865Z,0
2018-08-18T03:54:45.603Z,0
2018-08-18T03:55:45.950Z,0
2018-08-18T03:56:45.858Z,0
2018-08-18T03:57:45.847Z,0
2018-08-18T03:58:45.586Z,0
2018-08-18T03:59:45.593Z,0
2018-08-18T04:00:45.831Z,0
2018-08-18T04:01:46.328Z,0
2018-08-18T04:02:45.571Z,0
2018-08-18T04:03:45.871Z,0
2018-08-18T04:04:45.819Z,0
2018-08-18T04:05:45.555Z,0
2018-08-18T04:06:45.564Z,0
2018-08-18T04:07:45.299Z,0
2018-08-18T04:08:45.547Z,0
2018-08-18T04:09:45.808Z,0
2018-08-18T04:10:45.796Z,0
2018-08-18T04:11:45.797Z,0
2018-08-18T04:12:45.797Z,0
2018-08-18T04:13:45.539Z,0
2018-08-18T04:14:45.533Z,0
2018-08-18T04:15:45.793Z,0
2018-08-18T04:16:45.520Z,0
2018-08-18T04:17:45.520Z,0
2018-08-18T04:18:45.801Z,0
2018-08-18T04:19:45.766Z,0
2018-08-18T04:20:45.250Z,0
2018-08-18T04:21:45.757Z,0
2018-08-18T04:22:45.768Z,5
2018-08-18T04:23:45.748Z,5
2018-08-18T04:24:45.750Z,5
2018-08-18T04:25:45.753Z,5
2018-08-18T04:26:45.738Z,5
2018-08-18T04:27:45.225Z,5
2018-08-18T04:28:45.476Z,5
2018-08-18T04:29:45.471Z,5
2018-08-18T04:30:45.209Z,5
2018-08-18T04:31:45.724Z,5
2018-08-18T04:32:45.459Z,5
2018-08-18T04:33:45.710Z,5
2018-08-18T04:34:45.201Z,5
2018-08-18T04:35:45.450Z,10
2018-08-18T04:36:45.444Z,10
2018-08-18T04:37:45.708Z,10
2018-08-18T04:38:45.213Z,10
2018-08-18T04:39:45.442Z,15
2018-08-18T04:40:45.700Z,15
2018-08-18T04:41:45.438Z,15
2018-08-18T04:42:45.677Z,15
2018-08-18T04:43:45.535Z,10
2018-08-18T04:44:45.669Z,15
2018-08-18T04:45:45.664Z,15
2018-08-18T04:46:45.696Z,15
2018-08-18T04:47:45.663Z,15
2018-08-18T04:48:45.392Z,15
2018-08-18T04:49:45.407Z,15
2018-08-18T04:50:45.384Z,15
2018-08-18T04:51:45.385Z,15
2018-08-18T04:52:45.123Z,15
2018-08-18T04:53:45.378Z,15
2018-08-18T04:54:45.378Z,15
2018-08-18T04:55:45.374Z,15
2018-08-18T04:56:45.447Z,15
2018-08-18T04:57:45.371Z,15
2018-08-18T04:58:45.618Z,15
2018-08-18T04:59:45.363Z,15
2018-08-18T05:00:45.611Z,15
2018-08-18T05:01:45.602Z,20
2018-08-18T05:02:45.598Z,20
2018-08-18T05:03:45.737Z,25
2018-08-18T05:04:45.600Z,25
2018-08-18T05:05:45.351Z,20
2018-08-18T05:06:45.068Z,20
2018-08-18T05:07:45.326Z,25
2018-08-18T05:08:45.336Z,25
2018-08-18T05:09:45.329Z,25
2018-08-18T05:10:45.309Z,25
2018-08-18T05:11:46.321Z,35
2018-08-18T05:12:45.307Z,30
2018-08-18T05:13:45.297Z,35
2018-08-18T05:14:45.562Z,35
2018-08-18T05:15:45.299Z,35
2018-08-18T05:16:45.286Z,45
2018-08-18T05:17:45.022Z,60
2018-08-18T05:18:45.052Z,60
2018-08-18T05:19:45.543Z,65
2018-08-18T05:20:45.288Z,65
2018-08-18T05:21:45.284Z,65
2018-08-18T05:22:45.271Z,65
2018-08-18T05:23:44.745Z,70
2018-08-18T05:24:45.260Z,70
2018-08-18T05:25:45.520Z,70
2018-08-18T05:26:45.505Z,75
2018-08-18T05:27:44.991Z,80
2018-08-18T05:28:44.990Z,85
2018-08-18T05:29:45.498Z,85
2018-08-18T05:30:45.495Z,80
2018-08-18T05:31:45.233Z,75
2018-08-18T05:32:45.487Z,75
2018-08-18T05:33:45.484Z,85
2018-08-18T05:34:45.220Z,90
2018-08-18T05:35:45.476Z,90
2018-08-18T05:36:45.508Z,90
2018-08-18T05:37:45.209Z,95
2018-08-18T05:38:45.203Z,100
2018-08-18T05:39:45.456Z,95
2018-08-18T05:40:45.455Z,95
2018-08-18T05:41:45.480Z,95
2018-08-18T05:42:45.215Z,95
2018-08-18T05:43:45.203Z,90
2018-08-18T05:44:45.185Z,95
2018-08-18T05:45:45.446Z,95
2018-08-18T05:46:45.433Z,105
2018-08-18T05:47:45.991Z,110
2018-08-18T05:48:45.169Z,120
2018-08-18T05:49:45.162Z,115
2018-08-18T05:50:45.432Z,105
2018-08-18T05:51:45.157Z,100
2018-08-18T05:52:45.410Z,105
2018-08-18T05:53:45.149Z,115
2018-08-18T05:54:45.144Z,115
2018-08-18T05:55:45.412Z,105
2018-08-18T05:56:44.883Z,115
2018-08-18T05:57:45.137Z,115
2018-08-18T05:58:45.135Z,105
2018-08-18T05:59:45.389Z,120
2018-08-18T06:00:44.867Z,115
2018-08-18T06:01:45.382Z,95
2018-08-18T06:02:45.118Z,85
2018-08-18T06:03:45.371Z,80
2018-08-18T06:04:45.377Z,90
2018-08-18T06:05:45.401Z,100
2018-08-18T06:06:45.367Z,80
2018-08-18T06:07:45.146Z,70
2018-08-18T06:08:45.360Z,80
2018-08-18T06:09:45.353Z,80
2018-08-18T06:10:45.094Z,75
2018-08-18T06:11:45.091Z,75
2018-08-18T06:12:45.079Z,70
2018-08-18T06:13:45.076Z,65
2018-08-18T06:14:44.821Z,55
2018-08-18T06:15:45.074Z,50
2018-08-18T06:16:44.823Z,40
2018-08-18T06:17:45.067Z,45
2018-08-18T06:18:45.326Z,45
2018-08-18T06:19:45.323Z,50
2018-08-18T06:20:45.052Z,50
2018-08-18T06:21:45.049Z,60
2018-08-18T06:22:45.322Z,85
2018-08-18T06:23:45.305Z,90
2018-08-18T06:24:45.333Z,105
2018-08-18T06:25:45.290Z,115
2018-08-18T06:26:44.777Z,110
2018-08-18T06:27:45.027Z,115
2018-08-18T06:28:45.024Z,120
2018-08-18T06:29:45.023Z,120
2018-08-18T06:30:45.014Z,120
2018-08-18T06:31:44.500Z,120
2018-08-18T06:32:45.262Z,125
2018-08-18T06:33:45.002Z,130
2018-08-18T06:34:45.935Z,130
2018-08-18T06:35:44.743Z,130
2018-08-18T06:36:45.007Z,135
2018-08-18T06:37:44.990Z,140
2018-08-18T06:38:45.261Z,145
2018-08-18T06:39:44.979Z,145
2018-08-18T06:40:44.468Z,150
2018-08-18T06:41:46.329Z,165
2018-08-18T06:42:44.717Z,165
2018-08-18T06:43:44.971Z,165
2018-08-18T06:44:45.224Z,175
2018-08-18T06:45:44.704Z,185
2018-08-18T06:46:44.958Z,175
2018-08-18T06:47:45.219Z,180
2018-08-18T06:48:45.227Z,190
2018-08-18T06:49:44.689Z,200
2018-08-18T06:50:44.942Z,200
2018-08-18T06:51:45.202Z,210
2018-08-18T06:52:44.938Z,230
2018-08-18T06:53:45.191Z,230
2018-08-18T06:54:44.912Z,205
2018-08-18T06:55:45.199Z,195
2018-08-18T06:56:44.927Z,165
2018-08-18T06:57:45.189Z,140
2018-08-18T06:58:45.189Z,120
2018-08-18T06:59:44.920Z,110
2018-08-18T07:00:44.912Z,100
2018-08-18T07:01:44.912Z,95
2018-08-18T07:02:45.170Z,95
2018-08-18T07:03:44.906Z,105
2018-08-18T07:04:44.901Z,125
2018-08-18T07:05:45.261Z,115
2018-08-18T07:06:44.933Z,105
2018-08-18T07:07:45.153Z,100
2018-08-18T07:08:45.146Z,100
2018-08-18T07:09:45.147Z,105
2018-08-18T07:10:44.889Z,125
2018-08-18T07:11:45.144Z,125
2018-08-18T07:12:45.135Z,150
2018-08-18T07:13:45.133Z,235
2018-08-18T07:14:44.099Z,245
2018-08-18T07:15:44.612Z,235
2018-08-18T07:16:44.867Z,240
2018-08-18T07:17:44.864Z,230
2018-08-18T07:18:45.129Z,240
2018-08-18T07:19:44.863Z,265
2018-08-18T07:20:44.864Z,290
2018-08-18T07:21:44.860Z,295
2018-08-18T07:22:45.100Z,290
2018-08-18T07:23:44.846Z,300
2018-08-18T07:24:45.145Z,300
2018-08-18T07:25:45.100Z,290
2018-08-18T07:26:45.094Z,275
2018-08-18T07:27:44.836Z,305
2018-08-18T07:28:45.219Z,310
2018-08-18T07:29:45.093Z,275
2018-08-18T07:30:44.837Z,265
2018-08-18T07:31:44.831Z,265
2018-08-18T07:32:45.081Z,310
2018-08-18T07:33:44.817Z,360
2018-08-18T07:34:44.571Z,365
2018-08-18T07:35:45.070Z,370
2018-08-18T07:36:45.078Z,355
2018-08-18T07:37:45.287Z,365
2018-08-18T07:38:45.082Z,365
2018-08-18T07:39:44.809Z,345
2018-08-18T07:40:45.085Z,340
2018-08-18T07:41:45.067Z,350
2018-08-18T07:42:44.804Z,340
2018-08-18T07:43:44.812Z,350
2018-08-18T07:44:44.540Z,350
2018-08-18T07:45:44.540Z,340
2018-08-18T07:46:45.060Z,340
2018-08-18T07:47:44.799Z,355
2018-08-18T07:48:45.051Z,340
2018-08-18T07:49:45.049Z,335
2018-08-18T07:50:44.540Z,320
2018-08-18T07:51:44.786Z,330
2018-08-18T07:52:45.043Z,330
2018-08-18T07:53:45.496Z,300
2018-08-18T07:54:45.040Z,290
2018-08-18T07:55:44.778Z,305
2018-08-18T07:56:45.036Z,315
2018-08-18T07:57:45.033Z,360
2018-08-18T07:58:44.777Z,400
2018-08-18T07:59:45.212Z,400
2018-08-18T08:00:45.081Z,395
2018-08-18T08:01:44.516Z,410
2018-08-18T08:02:44.520Z,405
2018-08-18T08:03:44.769Z,420
2018-08-18T08:04:44.511Z,390
2018-08-18T08:05:45.513Z,380
2018-08-18T08:06:45.038Z,385
2018-08-18T08:07:44.509Z,365
2018-08-18T08:08:44.520Z,335
2018-08-18T08:09:45.034Z,335
2018-08-18T08:10:44.761Z,325
2018-08-18T08:11:44.763Z,305
2018-08-18T08:12:46.016Z,320
2018-08-18T08:13:44.765Z,360
2018-08-18T08:14:45.016Z,390
2018-08-18T08:15:44.756Z,360
2018-08-18T08:16:45.015Z,325
2018-08-18T08:17:45.025Z,300
2018-08-18T08:18:44.759Z,275
2018-08-18T08:19:45.013Z,285
2018-08-18T08:20:45.011Z,295
2018-08-18T08:21:45.011Z,285
2018-08-18T08:22:45.012Z,280
2018-08-18T08:23:45.008Z,285
2018-08-18T08:24:44.752Z,290
2018-08-18T08:25:44.235Z,305
2018-08-18T08:26:44.747Z,320
2018-08-18T08:27:44.745Z,330
2018-08-18T08:28:44.751Z,330
2018-08-18T08:29:44.492Z,315
2018-08-18T08:30:45.009Z,310
2018-08-18T08:31:45.000Z,315
2018-08-18T08:32:45.017Z,315
2018-08-18T08:33:45.003Z,315
2018-08-18T08:34:44.746Z,315
2018-08-18T08:35:44.744Z,315
2018-08-18T08:36:44.535Z,305
2018-08-18T08:37:44.744Z,290
2018-08-18T08:38:44.748Z,240
2018-08-18T08:39:44.738Z,235
2018-08-18T08:40:44.995Z,260
2018-08-18T08:41:44.482Z,285
2018-08-18T08:42:45.051Z,295
2018-08-18T08:43:44.480Z,300
2018-08-18T08:44:44.990Z,310
2018-08-18T08:45:44.993Z,315
2018-08-18T08:46:44.223Z,315
2018-08-18T08:47:44.786Z,305
2018-08-18T08:48:44.218Z,265
2018-08-18T08:49:44.218Z,250
2018-08-18T08:50:44.730Z,240
2018-08-18T08:51:44.998Z,235
2018-08-18T08:52:44.735Z,240
2018-08-18T08:53:44.732Z,255
2018-08-18T08:54:44.982Z,280
2018-08-18T08:55:44.984Z,300
2018-08-18T08:56:44.718Z,295
2018-08-18T08:57:44.725Z,285
2018-08-18T08:58:44.755Z,265
2018-08-18T08:59:44.721Z,265
2018-08-18T09:00:44.719Z,280
2018-08-18T09:01:44.517Z,295
2018-08-18T09:02:44.459Z,325
2018-08-18T09:03:44.717Z,350
2018-08-18T09:04:44.977Z,355
2018-08-18T09:05:44.464Z,375
2018-08-18T09:06:44.730Z,420
2018-08-18T09:07:44.968Z,435
2018-08-18T09:08:44.716Z,410
2018-08-18T09:09:44.713Z,410
2018-08-18T09:10:44.976Z,430
2018-08-18T09:11:44.980Z,440
2018-08-18T09:12:44.981Z,425
2018-08-18T09:13:44.740Z,430
2018-08-18T09:14:44.967Z,445
2018-08-18T09:15:44.705Z,405
2018-08-18T09:16:45.307Z,355
2018-08-18T09:17:44.718Z,355
2018-08-18T09:18:44.703Z,330
2018-08-18T09:19:44.710Z,300
2018-08-18T09:20:44.961Z,280
2018-08-18T09:21:44.970Z,285
2018-08-18T09:22:44.705Z,280
2018-08-18T09:23:44.704Z,285
2018-08-18T09:24:44.715Z,315
2018-08-18T09:25:44.960Z,330
2018-08-18T09:26:44.792Z,310
2018-08-18T09:27:44.703Z,340
2018-08-18T09:28:44.700Z,380
2018-08-18T09:29:44.698Z,370
2018-08-18T09:30:44.698Z,395
2018-08-18T09:31:44.707Z,410
2018-08-18T09:32:44.441Z,375
2018-08-18T09:33:44.695Z,350
2018-08-18T09:34:44.961Z,305
2018-08-18T09:35:44.961Z,300
2018-08-18T09:36:44.694Z,350
2018-08-18T09:37:44.438Z,380
2018-08-18T09:38:44.695Z,455
2018-08-18T09:39:44.705Z,555
2018-08-18T09:40:44.437Z,540
2018-08-18T09:41:44.948Z,480
2018-08-18T09:42:44.436Z,470
2018-08-18T09:43:44.954Z,410
2018-08-18T09:44:44.970Z,370
2018-08-18T09:45:44.958Z,340
2018-08-18T09:46:44.959Z,350
2018-08-18T09:47:44.696Z,350
2018-08-18T09:48:44.955Z,390
2018-08-18T09:49:44.698Z,340
2018-08-18T09:50:44.700Z,365
2018-08-18T09:51:44.948Z,400
2018-08-18T09:52:44.460Z,390
2018-08-18T09:53:44.431Z,350
2018-08-18T09:54:44.976Z,325
2018-08-18T09:55:44.177Z,255
2018-08-18T09:56:44.951Z,255
2018-08-18T09:57:44.949Z,280
2018-08-18T09:58:45.165Z,315
2018-08-18T09:59:44.948Z,320
2018-08-18T10:00:44.954Z,345
2018-08-18T10:01:44.430Z,345
2018-08-18T10:02:44.438Z,335
2018-08-18T10:03:44.945Z,335
2018-08-18T10:04:44.692Z,315
2018-08-18T10:05:44.690Z,305
2018-08-18T10:06:44.720Z,290
2018-08-18T10:07:44.756Z,275
2018-08-18T10:08:44.435Z,275
2018-08-18T10:09:44.950Z,260
2018-08-18T10:10:44.950Z,250
2018-08-18T10:11:44.693Z,235
2018-08-18T10:12:44.685Z,235
2018-08-18T10:13:44.944Z,240
2018-08-18T10:14:44.705Z,255
2018-08-18T10:15:44.940Z,270
2018-08-18T10:16:44.986Z,270
2018-08-18T10:17:44.679Z,280
2018-08-18T10:18:44.941Z,295
2018-08-18T10:19:44.421Z,305
2018-08-18T10:20:44.936Z,310
2018-08-18T10:21:44.933Z,320
2018-08-18T10:22:44.679Z,310
2018-08-18T10:23:44.679Z,315
2018-08-18T10:24:44.676Z,300
2018-08-18T10:25:44.935Z,280
2018-08-18T10:26:44.672Z,285
2018-08-18T10:27:44.982Z,265
2018-08-18T10:28:44.925Z,275
2018-08-18T10:29:44.678Z,270
2018-08-18T10:30:44.670Z,255
2018-08-18T10:31:44.670Z,245
2018-08-18T10:32:44.417Z,240
2018-08-18T10:33:44.665Z,235
2018-08-18T10:34:44.667Z,235
2018-08-18T10:35:44.665Z,235
2018-08-18T10:36:44.661Z,235
2018-08-18T10:37:44.669Z,225
2018-08-18T10:38:44.919Z,225
2018-08-18T10:39:44.923Z,245
2018-08-18T10:40:44.661Z,250
2018-08-18T10:41:44.661Z,250
2018-08-18T10:42:44.930Z,270
2018-08-18T10:43:44.939Z,300
2018-08-18T10:44:44.666Z,330
2018-08-18T10:45:44.661Z,345
2018-08-18T10:46:44.912Z,320
2018-08-18T10:47:44.396Z,295
2018-08-18T10:48:44.393Z,285
2018-08-18T10:49:44.659Z,275
2018-08-18T10:50:44.908Z,275
2018-08-18T10:51:45.546Z,275
2018-08-18T10:52:44.907Z,285
2018-08-18T10:53:44.397Z,290
2018-08-18T10:54:44.648Z,290
2018-08-18T10:55:44.904Z,285
2018-08-18T10:56:44.644Z,290
2018-08-18T10:57:44.642Z,280
2018-08-18T10:58:44.948Z,265
2018-08-18T10:59:44.905Z,255
2018-08-18T11:00:44.905Z,265
2018-08-18T11:01:44.904Z,260
2018-08-18T11:02:44.901Z,250
2018-08-18T11:03:44.661Z,225
2018-08-18T11:04:44.911Z,235
2018-08-18T11:05:44.640Z,245
2018-08-18T11:06:44.908Z,250
2018-08-18T11:07:44.903Z,255
2018-08-18T11:08:44.644Z,250
2018-08-18T11:09:44.636Z,230
2018-08-18T11:10:44.898Z,220
2018-08-18T11:11:44.955Z,215
2018-08-18T11:12:44.375Z,230
2018-08-18T11:13:44.644Z,235
2018-08-18T11:14:44.637Z,230
2018-08-18T11:15:44.953Z,250
2018-08-18T11:16:44.638Z,250
2018-08-18T11:17:44.641Z,245
2018-08-18T11:18:44.641Z,245
2018-08-18T11:19:44.636Z,255
2018-08-18T11:20:44.893Z,255
2018-08-18T11:21:45.009Z,250
2018-08-18T11:22:44.642Z,240
2018-08-18T11:23:44.637Z,230
2018-08-18T11:24:44.644Z,230
2018-08-18T11:25:44.631Z,235
2018-08-18T11:26:44.894Z,245
2018-08-18T11:27:44.893Z,255
2018-08-18T11:28:45.654Z,260
2018-08-18T11:29:44.640Z,255
2018-08-18T11:30:44.899Z,240
2018-08-18T11:31:44.636Z,230
2018-08-18T11:32:44.635Z,220
2018-08-18T11:33:44.888Z,220
2018-08-18T11:34:44.641Z,230
2018-08-18T11:35:44.633Z,235
2018-08-18T11:36:44.643Z,240
2018-08-18T11:37:44.638Z,235
2018-08-18T11:38:44.895Z,225
2018-08-18T11:39:44.638Z,220
2018-08-18T11:40:44.381Z,215
2018-08-18T11:41:44.524Z,210
2018-08-18T11:42:44.382Z,210
2018-08-18T11:43:44.124Z,245
2018-08-18T11:44:44.897Z,270
2018-08-18T11:45:44.650Z,300
2018-08-18T11:46:44.386Z,310
2018-08-18T11:47:44.385Z,310
2018-08-18T11:48:44.395Z,290
2018-08-18T11:49:44.641Z,260
2018-08-18T11:50:44.642Z,225
2018-08-18T11:51:44.901Z,210
2018-08-18T11:52:44.904Z,215
2018-08-18T11:53:44.650Z,220
2018-08-18T11:54:44.647Z,230
2018-08-18T11:55:44.649Z,265
2018-08-18T11:56:44.646Z,315
2018-08-18T11:57:44.910Z,340
2018-08-18T11:58:44.646Z,325
2018-08-18T11:59:44.907Z,270
2018-08-18T12:00:44.915Z,245
2018-08-18T12:01:44.649Z,225
2018-08-18T12:02:44.908Z,210
2018-08-18T12:03:44.397Z,235
2018-08-18T12:04:44.657Z,255
2018-08-18T12:05:44.961Z,275
2018-08-18T12:06:44.664Z,255
2018-08-18T12:07:44.911Z,230
2018-08-18T12:08:44.396Z,220
2018-08-18T12:09:44.658Z,210
2018-08-18T12:10:44.791Z,225
2018-08-18T12:11:44.667Z,220
2018-08-18T12:12:44.655Z,200
2018-08-18T12:13:44.924Z,215
2018-08-18T12:14:44.918Z,215
2018-08-18T12:15:44.664Z,210
2018-08-18T12:16:44.925Z,210
2018-08-18T12:17:44.663Z,220
2018-08-18T12:18:44.923Z,220
2018-08-18T12:19:44.411Z,210
2018-08-18T12:20:44.789Z,200
2018-08-18T12:21:44.932Z,200
2018-08-18T12:22:44.931Z,205
2018-08-18T12:23:44.933Z,215
2018-08-18T12:24:44.671Z,225
2018-08-18T12:25:44.414Z,235
2018-08-18T12:26:44.675Z,230
2018-08-18T12:27:44.674Z,225
2018-08-18T12:28:44.938Z,210
2018-08-18T12:29:45.751Z,205
2018-08-18T12:30:44.934Z,205
2018-08-18T12:31:44.935Z,205
2018-08-18T12:32:44.937Z,210
2018-08-18T12:33:44.685Z,220
2018-08-18T12:34:44.938Z,225
2018-08-18T12:35:44.684Z,245
2018-08-18T12:36:45.344Z,250
2018-08-18T12:37:44.828Z,235
2018-08-18T12:38:44.687Z,205
2018-08-18T12:39:44.699Z,195
2018-08-18T12:40:44.944Z,195
2018-08-18T12:41:44.690Z,195
2018-08-18T12:42:44.438Z,200
2018-08-18T12:43:45.035Z,205
2018-08-18T12:44:44.697Z,210
2018-08-18T12:45:44.186Z,215
2018-08-18T12:46:44.191Z,220
2018-08-18T12:47:44.450Z,215
2018-08-18T12:48:44.963Z,210
2018-08-18T12:49:45.432Z,200
2018-08-18T12:50:44.702Z,195
2018-08-18T12:51:44.966Z,195
2018-08-18T12:52:44.705Z,200
2018-08-18T12:53:44.449Z,205
2018-08-18T12:54:44.711Z,205
2018-08-18T12:55:44.451Z,200
2018-08-18T12:56:44.972Z,200
2018-08-18T12:57:44.716Z,195
2018-08-18T12:58:45.697Z,195
2018-08-18T12:59:44.728Z,195
2018-08-18T13:00:44.974Z,195
2018-08-18T13:01:44.470Z,195
2018-08-18T13:02:44.717Z,200
2018-08-18T13:03:44.977Z,200
2018-08-18T13:04:44.463Z,200
2018-08-18T13:05:44.728Z,200
2018-08-18T13:06:44.724Z,205
2018-08-18T13:07:44.468Z,200
2018-08-18T13:08:44.984Z,200
2018-08-18T13:09:44.981Z,195
2018-08-18T13:10:44.724Z,195
2018-08-18T13:11:45.081Z,195
2018-08-18T13:12:44.733Z,195
2018-08-18T13:13:44.736Z,195
2018-08-18T13:14:44.736Z,195
2018-08-18T13:15:44.736Z,200
2018-08-18T13:16:45.010Z,205
2018-08-18T13:17:44.997Z,205
2018-08-18T13:18:45.619Z,205
2018-08-18T13:19:44.995Z,205
2018-08-18T13:20:45.218Z,205
2018-08-18T13:21:44.999Z,210
2018-08-18T13:22:45.003Z,205
2018-08-18T13:23:45.009Z,205
2018-08-18T13:24:44.491Z,200
2018-08-18T13:25:44.743Z,195
2018-08-18T13:26:45.190Z,195
2018-08-18T13:27:44.489Z,200
2018-08-18T13:28:45.009Z,210
2018-08-18T13:29:45.008Z,220
2018-08-18T13:30:45.086Z,230
2018-08-18T13:31:44.756Z,240
2018-08-18T13:32:44.757Z,230
2018-08-18T13:33:44.499Z,220
2018-08-18T13:34:44.502Z,210
2018-08-18T13:35:44.520Z,200
2018-08-18T13:36:45.017Z,205
2018-08-18T13:37:45.019Z,210
2018-08-18T13:38:44.761Z,210
2018-08-18T13:39:45.024Z,205
2018-08-18T13:40:44.662Z,205
2018-08-18T13:41:44.511Z,205
2018-08-18T13:42:44.773Z,205
2018-08-18T13:43:45.023Z,205
2018-08-18T13:44:45.024Z,205
2018-08-18T13:45:44.772Z,205
2018-08-18T13:46:44.681Z,205
2018-08-18T13:47:45.043Z,205
2018-08-18T13:48:44.778Z,200
2018-08-18T13:49:44.775Z,200
2018-08-18T13:50:44.780Z,205
2018-08-18T13:51:44.782Z,210
2018-08-18T13:52:45.216Z,200
2018-08-18T13:53:44.797Z,195
2018-08-18T13:54:45.047Z,195
2018-08-18T13:55:44.792Z,195
2018-08-18T13:56:45.046Z,195
2018-08-18T13:57:44.536Z,195
2018-08-18T13:58:44.977Z,195
2018-08-18T13:59:44.807Z,200
2018-08-18T14:00:45.071Z,200
2018-08-18T14:01:44.805Z,195
2018-08-18T14:02:44.543Z,195
2018-08-18T14:03:45.113Z,195
2018-08-18T14:04:44.802Z,195
2018-08-18T14:05:44.801Z,190
2018-08-18T14:06:44.808Z,190
2018-08-18T14:07:44.803Z,190
2018-08-18T14:08:45.069Z,190